createdAt,value
2019-03-24T00:01:17.733Z,98248.56
2019-03-24T00:03:44.649Z,98243.55
2019-03-24T00:06:11.621Z,98244.34
2019-03-24T00:08:38.542Z,98248.28
2019-03-24T00:11:05.440Z,98241.73
2019-03-24T00:13:32.346Z,98242.23
2019-03-24T00:15:59.256Z,98253.74
2019-03-24T00:18:26.193Z,98244.56
2019-03-24T00:20:53.102Z,98250.91
2019-03-24T00:23:20.013Z,98245.66
2019-03-24T00:25:46.928Z,98243.55
2019-03-24T00:28:13.841Z,98239.33
2019-03-24T00:30:40.744Z,98238.81
2019-03-24T00:33:07.666Z,98238.02
2019-03-24T00:35:34.577Z,98240.92
2019-03-24T00:38:01.487Z,98242.75
2019-03-24T00:40:28.428Z,98236.70
2019-03-24T00:42:55.327Z,98230.95
2019-03-24T00:45:22.242Z,98230.95
2019-03-24T00:47:49.547Z,98227.02
2019-03-24T00:50:16.564Z,98227.53
2019-03-24T00:52:43.485Z,98214.42
2019-03-24T00:55:10.385Z,98214.42
2019-03-24T00:57:37.699Z,98218.36
2019-03-24T01:00:04.811Z,98216.02
2019-03-24T01:02:31.806Z,98211.00
2019-03-24T01:04:58.715Z,98211.00
2019-03-24T01:07:25.636Z,98209.69
2019-03-24T01:09:52.562Z,98200.29
2019-03-24T01:12:19.460Z,98197.09
2019-03-24T01:14:46.397Z,98204.73
2019-03-24T01:17:13.314Z,98191.05
2019-03-24T01:19:40.236Z,98192.43
2019-03-24T01:22:07.148Z,98193.45
2019-03-24T01:24:34.117Z,98190.03
2019-03-24T01:27:01.034Z,98188.72
2019-03-24T01:29:27.958Z,98193.16
2019-03-24T01:31:54.878Z,98192.14
2019-03-24T01:34:21.784Z,98190.55
2019-03-24T01:36:48.707Z,98183.19
2019-03-24T01:39:15.684Z,98180.86
2019-03-24T01:41:42.628Z,98172.19
2019-03-24T01:44:09.531Z,98169.57
2019-03-24T01:46:36.440Z,98174.30
2019-03-24T01:49:03.361Z,98174.81
2019-03-24T01:51:30.263Z,98172.98
2019-03-24T01:53:57.176Z,98174.02
2019-03-24T01:56:24.093Z,98176.12
2019-03-24T01:58:51.104Z,98181.88
2019-03-24T02:01:18.040Z,98181.37
2019-03-24T02:03:44.953Z,98179.25
2019-03-24T02:06:11.860Z,98176.12
2019-03-24T02:08:38.767Z,98171.39
2019-03-24T02:11:05.679Z,98166.15
2019-03-24T02:13:32.585Z,98168.77
2019-03-24T02:16:09.036Z,98160.91
2019-03-24T02:18:28.080Z,98162.73
2019-03-24T02:20:54.984Z,98191.56
2019-03-24T02:23:21.883Z,98167.97
2019-03-24T02:25:48.805Z,98164.84
2019-03-24T02:28:17.455Z,98163.23
2019-03-24T02:30:44.436Z,98165.86
2019-03-24T02:33:11.350Z,98183.41
2019-03-24T02:35:38.284Z,98161.12
2019-03-24T02:38:05.189Z,98159.02
2019-03-24T02:40:32.093Z,98155.09
2019-03-24T02:42:59.006Z,98153.78
2019-03-24T02:45:25.937Z,98163.75
2019-03-24T02:47:52.873Z,98157.20
2019-03-24T02:50:19.795Z,98166.38
2019-03-24T02:52:46.694Z,98168.99
2019-03-24T02:55:13.618Z,98163.23
2019-03-24T02:57:40.521Z,98166.38
2019-03-24T03:00:07.426Z,98165.86
2019-03-24T03:02:34.349Z,98164.77
2019-03-24T03:05:01.285Z,98169.50
2019-03-24T03:07:28.201Z,98165.28
2019-03-24T03:09:55.130Z,98162.44
2019-03-24T03:12:22.047Z,98163.97
2019-03-24T03:14:48.957Z,98152.47
2019-03-24T03:17:15.889Z,98152.69
2019-03-24T03:19:42.815Z,98153.48
2019-03-24T03:22:09.737Z,98150.87
2019-03-24T03:24:36.650Z,98147.45
2019-03-24T03:27:03.625Z,98145.62
2019-03-24T03:29:30.547Z,98152.17
2019-03-24T03:31:57.483Z,98156.11
2019-03-24T03:34:24.391Z,98157.42
2019-03-24T03:36:51.328Z,98148.25
2019-03-24T03:39:18.234Z,98151.38
2019-03-24T03:41:45.143Z,98150.07
2019-03-24T03:44:12.048Z,98146.94
2019-03-24T03:46:51.553Z,98149.78
2019-03-24T03:49:07.512Z,98149.78
2019-03-24T03:51:34.457Z,98151.38
2019-03-24T03:54:01.451Z,98154.52
2019-03-24T03:56:28.341Z,98156.63
2019-03-24T03:58:55.250Z,98154.52
2019-03-24T04:01:22.173Z,98155.82
2019-03-24T04:03:49.086Z,98151.09
2019-03-24T04:06:15.991Z,98151.09
2019-03-24T04:08:42.907Z,98152.11
2019-03-24T04:11:09.808Z,98151.61
2019-03-24T04:13:36.740Z,98151.61
2019-03-24T04:16:03.660Z,98146.36
2019-03-24T04:18:30.571Z,98147.38
2019-03-24T04:20:57.483Z,98149.49
2019-03-24T04:23:24.372Z,98150.29
2019-03-24T04:25:51.295Z,98148.19
2019-03-24T04:28:18.286Z,98153.42
2019-03-24T04:30:45.206Z,98140.55
2019-03-24T04:33:12.118Z,98143.16
2019-03-24T04:35:39.031Z,98145.28
2019-03-24T04:38:05.926Z,98145.56
2019-03-24T04:40:32.881Z,98140.83
2019-03-24T04:42:59.787Z,98140.55
2019-03-24T04:45:26.684Z,98139.23
2019-03-24T04:47:53.610Z,98144.77
2019-03-24T04:50:20.511Z,98140.55
2019-03-24T04:52:47.417Z,98143.16
2019-03-24T04:55:14.329Z,98137.41
2019-03-24T04:57:41.328Z,98141.34
2019-03-24T05:00:08.227Z,98136.61
2019-03-24T05:02:35.192Z,98141.05
2019-03-24T05:05:02.118Z,98141.53
2019-03-24T05:07:29.017Z,98147.09
2019-03-24T05:09:55.938Z,98141.05
2019-03-24T05:12:22.844Z,98144.47
2019-03-24T05:14:49.752Z,98143.36
2019-03-24T05:17:26.479Z,98142.84
2019-03-24T05:19:45.221Z,98141.53
2019-03-24T05:22:12.133Z,98145.47
2019-03-24T05:24:39.060Z,98025.95
2019-03-24T05:27:05.977Z,98148.41
2019-03-24T05:29:32.880Z,98151.03
2019-03-24T05:31:59.790Z,98148.92
2019-03-24T05:34:26.709Z,98147.61
2019-03-24T05:36:53.650Z,98137.31
2019-03-24T05:39:20.552Z,98143.16
2019-03-24T05:41:47.455Z,98143.36
2019-03-24T05:44:14.379Z,98136.80
2019-03-24T05:46:41.285Z,98138.91
2019-03-24T05:49:08.290Z,98136.30
2019-03-24T05:51:35.206Z,98145.47
2019-03-24T05:54:02.163Z,98138.63
2019-03-24T05:56:29.141Z,98142.56
2019-03-24T05:58:56.063Z,98137.31
2019-03-24T06:01:22.969Z,98136.01
2019-03-24T06:03:49.878Z,98139.14
2019-03-24T06:06:16.802Z,98013.89
2019-03-24T06:08:43.707Z,98134.41
2019-03-24T06:11:10.611Z,98128.66
2019-03-24T06:13:37.550Z,98132.59
2019-03-24T06:16:04.469Z,98129.16
2019-03-24T06:18:31.395Z,98129.67
2019-03-24T06:20:58.295Z,98031.99
2019-03-24T06:23:25.238Z,98132.59
2019-03-24T06:25:52.140Z,98137.03
2019-03-24T06:28:19.062Z,98137.03
2019-03-24T06:30:45.975Z,98137.83
2019-03-24T06:33:12.875Z,98131.78
2019-03-24T06:35:39.784Z,98135.72
2019-03-24T06:38:06.726Z,98127.06
2019-03-24T06:40:33.641Z,98130.98
2019-03-24T06:43:00.540Z,98131.50
2019-03-24T06:45:28.726Z,98122.33
2019-03-24T06:47:58.217Z,98125.97
2019-03-24T06:50:24.431Z,98132.30
2019-03-24T06:52:51.347Z,98131.50
2019-03-24T06:55:18.294Z,98129.39
2019-03-24T06:57:45.208Z,98134.92
2019-03-24T07:00:12.111Z,98132.81
2019-03-24T07:02:39.039Z,98126.77
2019-03-24T07:05:05.995Z,98124.66
2019-03-24T07:07:32.913Z,98129.91
2019-03-24T07:09:59.826Z,98127.28
2019-03-24T07:12:26.755Z,98132.02
2019-03-24T07:14:53.663Z,98135.43
2019-03-24T07:17:20.572Z,98129.39
2019-03-24T07:19:47.487Z,98131.22
2019-03-24T07:22:14.398Z,98135.14
2019-03-24T07:24:41.317Z,98133.03
2019-03-24T07:27:08.245Z,98137.25
2019-03-24T07:29:35.151Z,98137.25
2019-03-24T07:32:02.062Z,98133.03
2019-03-24T07:34:28.980Z,98134.34
2019-03-24T07:36:55.897Z,98127.28
2019-03-24T07:39:22.791Z,98128.59
2019-03-24T07:41:49.716Z,98120.95
2019-03-24T07:44:16.622Z,98146.65
2019-03-24T07:46:43.657Z,98119.13
2019-03-24T07:49:10.584Z,98115.48
2019-03-24T07:51:37.479Z,98113.89
2019-03-24T07:54:04.391Z,98119.93
2019-03-24T07:56:31.310Z,98116.52
2019-03-24T07:58:58.233Z,98114.41
2019-03-24T08:01:25.163Z,98113.09
2019-03-24T08:03:52.086Z,98113.09
2019-03-24T08:06:18.991Z,98114.69
2019-03-24T08:08:45.891Z,98113.38
2019-03-24T08:11:12.817Z,98135.66
2019-03-24T08:13:39.726Z,98107.34
2019-03-24T08:16:06.636Z,98102.61
2019-03-24T08:18:33.584Z,98102.61
2019-03-24T08:21:00.502Z,98102.09
2019-03-24T08:23:27.404Z,98097.88
2019-03-24T08:25:54.349Z,98092.12
2019-03-24T08:28:23.109Z,97886.16
2019-03-24T08:30:49.847Z,98090.30
2019-03-24T08:33:16.762Z,98086.88
2019-03-24T08:35:43.677Z,98087.39
2019-03-24T08:38:10.585Z,98089.50
2019-03-24T08:40:37.497Z,98083.98
2019-03-24T08:43:04.408Z,98085.28
2019-03-24T08:45:31.364Z,98090.02
2019-03-24T08:47:58.365Z,98091.33
2019-03-24T08:50:25.284Z,98088.70
2019-03-24T08:52:52.192Z,98089.50
2019-03-24T08:55:19.125Z,98084.77
2019-03-24T08:57:46.036Z,98089.50
2019-03-24T09:00:12.946Z,98088.19
2019-03-24T09:02:39.853Z,98079.24
2019-03-24T09:05:06.766Z,98078.73
2019-03-24T09:07:33.676Z,98078.73
2019-03-24T09:10:00.612Z,98078.22
2019-03-24T09:12:27.525Z,98083.18
2019-03-24T09:14:54.436Z,98077.71
2019-03-24T09:17:21.377Z,98074.52
2019-03-24T09:19:48.284Z,98073.49
2019-03-24T09:22:15.198Z,98066.14
2019-03-24T09:24:42.105Z,98066.94
2019-03-24T09:27:09.016Z,98058.56
2019-03-24T09:29:35.928Z,98060.90
2019-03-24T09:32:02.841Z,98065.12
2019-03-24T09:34:29.757Z,98051.22
2019-03-24T09:36:56.673Z,98053.33
2019-03-24T09:39:23.589Z,98052.02
2019-03-24T09:41:50.493Z,98049.91
2019-03-24T09:44:17.497Z,98044.16
2019-03-24T09:46:44.412Z,98042.84
2019-03-24T09:49:11.324Z,98037.60
2019-03-24T09:51:38.231Z,98038.11
2019-03-24T09:54:05.173Z,98032.36
2019-03-24T09:56:32.091Z,98029.73
2019-03-24T09:58:59.001Z,98027.92
2019-03-24T10:01:25.946Z,98026.83
2019-03-24T10:03:52.857Z,98021.88
2019-03-24T10:06:19.769Z,98011.91
2019-03-24T10:08:47.499Z,98016.12
2019-03-24T10:11:14.518Z,98007.97
2019-03-24T10:13:41.424Z,98006.95
2019-03-24T10:16:08.336Z,98004.33
2019-03-24T10:18:35.248Z,97996.70
2019-03-24T10:21:02.162Z,97995.16
2019-03-24T10:23:29.074Z,97989.63
2019-03-24T10:25:56.005Z,97985.19
2019-03-24T10:28:22.920Z,97986.50
2019-03-24T10:30:49.837Z,97980.75
2019-03-24T10:33:16.748Z,97970.77
2019-03-24T10:35:43.680Z,97970.77
2019-03-24T10:38:10.590Z,97970.27
2019-03-24T10:40:37.524Z,97965.02
2019-03-24T10:43:04.432Z,97967.64
2019-03-24T10:45:31.340Z,97957.67
2019-03-24T10:47:58.313Z,97956.36
2019-03-24T10:50:25.221Z,97959.78
2019-03-24T10:52:52.133Z,97953.23
2019-03-24T10:55:19.116Z,97947.98
2019-03-24T10:57:46.034Z,97946.45
2019-03-24T11:00:12.940Z,97943.55
2019-03-24T11:02:39.877Z,97941.95
2019-03-24T11:05:06.784Z,97933.86
2019-03-24T11:07:33.696Z,97937.50
2019-03-24T11:10:00.605Z,97927.30
2019-03-24T11:12:27.555Z,97930.44
2019-03-24T11:14:54.448Z,97930.95
2019-03-24T11:17:21.356Z,97931.23
2019-03-24T11:19:48.300Z,97925.71
2019-03-24T11:22:15.205Z,97930.95
2019-03-24T11:24:42.115Z,97926.51
2019-03-24T11:27:09.084Z,97922.06
2019-03-24T11:29:36.048Z,97910.27
2019-03-24T11:32:02.960Z,97912.09
2019-03-24T11:34:29.873Z,97905.54
2019-03-24T11:36:56.805Z,97911.58
2019-03-24T11:39:23.712Z,97908.67
2019-03-24T11:41:50.624Z,97908.67
2019-03-24T11:44:17.537Z,97908.16
2019-03-24T11:46:44.445Z,97905.03
2019-03-24T11:49:11.361Z,97893.75
2019-03-24T11:51:38.277Z,97893.23
2019-03-24T11:54:05.192Z,97891.41
2019-03-24T11:56:32.095Z,97887.20
2019-03-24T11:58:59.058Z,97880.64
2019-03-24T12:01:26.007Z,97878.03
2019-03-24T12:03:52.920Z,97875.41
2019-03-24T12:06:19.861Z,97872.78
2019-03-24T12:08:46.869Z,97870.96
2019-03-24T12:11:13.799Z,97867.55
2019-03-24T12:13:40.713Z,97869.14
2019-03-24T12:16:07.707Z,97862.30
2019-03-24T12:18:34.619Z,97859.69
2019-03-24T12:21:01.528Z,97855.23
2019-03-24T12:23:28.437Z,97842.13
2019-03-24T12:25:55.368Z,97832.68
2019-03-24T12:28:22.280Z,97833.98
2019-03-24T12:30:49.192Z,97826.13
2019-03-24T12:33:16.119Z,97825.62
2019-03-24T12:35:43.025Z,97823.00
2019-03-24T12:38:09.941Z,97818.55
2019-03-24T12:40:36.849Z,97823.00
2019-03-24T12:43:03.761Z,97818.55
2019-03-24T12:45:30.675Z,97812.00
2019-03-24T12:47:57.584Z,97808.06
2019-03-24T12:50:31.414Z,97811.48
2019-03-24T12:52:53.050Z,97816.73
2019-03-24T12:55:20.032Z,97805.45
2019-03-24T12:57:46.943Z,97798.89
2019-03-24T13:00:13.853Z,97801.00
2019-03-24T13:02:40.761Z,97791.83
2019-03-24T13:05:07.673Z,97795.25
2019-03-24T13:07:34.580Z,97786.59
2019-03-24T13:10:01.497Z,97782.66
2019-03-24T13:12:28.407Z,97781.34
2019-03-24T13:14:55.341Z,97773.77
2019-03-24T13:17:22.243Z,97774.80
2019-03-24T13:19:49.216Z,97774.28
2019-03-24T13:22:16.080Z,97767.22
2019-03-24T13:24:42.996Z,97767.73
2019-03-24T13:27:09.922Z,97769.05
2019-03-24T13:29:36.817Z,97768.52
2019-03-24T13:32:03.756Z,97763.00
2019-03-24T13:34:30.677Z,97761.18
2019-03-24T13:36:57.584Z,97759.07
2019-03-24T13:39:24.580Z,97760.66
2019-03-24T13:41:51.481Z,97748.88
2019-03-24T13:44:18.408Z,97752.01
2019-03-24T13:46:45.391Z,97742.32
2019-03-24T13:49:12.306Z,97740.73
2019-03-24T13:51:39.330Z,97738.39
2019-03-24T13:54:06.335Z,97734.97
2019-03-24T13:56:33.291Z,97737.08
2019-03-24T13:59:00.203Z,97727.39
2019-03-24T14:01:27.376Z,97723.18
2019-03-24T14:03:54.295Z,97721.36
2019-03-24T14:06:21.217Z,97711.91
2019-03-24T14:08:48.144Z,97715.59
2019-03-24T14:11:15.054Z,97716.11
2019-03-24T14:13:41.966Z,97712.70
2019-03-24T14:16:08.876Z,97711.67
2019-03-24T14:18:35.802Z,97712.19
2019-03-24T14:21:02.745Z,97713.50
2019-03-24T14:23:29.652Z,97710.08
2019-03-24T14:25:56.565Z,97703.02
2019-03-24T14:28:23.481Z,97710.88
2019-03-24T14:30:50.394Z,97722.67
2019-03-24T14:33:17.320Z,97694.64
2019-03-24T14:35:44.232Z,97696.45
2019-03-24T14:38:11.131Z,97692.02
2019-03-24T14:40:38.047Z,97689.11
2019-03-24T14:43:04.969Z,97681.53
2019-03-24T14:45:31.900Z,97688.08
2019-03-24T14:47:58.799Z,97691.22
2019-03-24T14:50:25.707Z,97686.77
2019-03-24T14:52:52.629Z,97673.67
2019-03-24T14:55:19.531Z,97681.53
2019-03-24T14:57:46.449Z,97675.49
2019-03-24T15:00:13.462Z,97681.02
2019-03-24T15:02:40.980Z,97565.55
2019-03-24T15:05:07.991Z,97683.64
2019-03-24T15:07:34.946Z,97675.49
2019-03-24T15:10:01.860Z,97675.49
2019-03-24T15:12:28.783Z,97671.84
2019-03-24T15:14:55.715Z,97675.78
2019-03-24T15:17:22.608Z,97676.30
2019-03-24T15:19:49.545Z,97679.42
2019-03-24T15:22:16.459Z,97681.02
2019-03-24T15:24:44.905Z,97677.09
2019-03-24T15:27:11.820Z,97668.94
2019-03-24T15:29:38.727Z,97669.74
2019-03-24T15:32:05.653Z,97673.16
2019-03-24T15:34:32.548Z,97669.74
2019-03-24T15:36:59.521Z,97667.40
2019-03-24T15:39:26.436Z,97667.63
2019-03-24T15:41:53.336Z,97673.16
2019-03-24T15:44:20.264Z,97680.50
2019-03-24T15:46:47.269Z,97673.67
2019-03-24T15:49:14.190Z,97681.02
2019-03-24T15:51:41.092Z,97683.64
2019-03-24T15:54:08.014Z,97685.98
2019-03-24T15:56:34.915Z,97688.59
2019-03-24T15:59:01.841Z,97695.95
2019-03-24T16:01:28.761Z,97695.15
2019-03-24T16:03:55.678Z,97696.73
2019-03-24T16:06:22.605Z,97698.05
2019-03-24T16:08:49.506Z,97697.25
2019-03-24T16:11:16.446Z,97694.13
2019-03-24T16:13:43.374Z,97699.59
2019-03-24T16:16:10.308Z,97695.15
2019-03-24T16:18:37.225Z,97702.50
2019-03-24T16:21:04.124Z,97701.19
2019-03-24T16:23:31.027Z,97701.70
2019-03-24T16:25:57.953Z,97705.63
2019-03-24T16:28:24.886Z,97713.50
2019-03-24T16:30:51.784Z,97715.88
2019-03-24T16:33:18.753Z,97713.50
2019-03-24T16:35:45.650Z,97720.05
2019-03-24T16:38:12.556Z,97726.88
2019-03-24T16:40:41.365Z,97730.02
2019-03-24T16:43:08.070Z,97726.59
2019-03-24T16:45:34.996Z,97728.70
2019-03-24T16:48:01.918Z,97727.11
2019-03-24T16:50:28.833Z,97728.42
2019-03-24T16:52:55.739Z,97728.94
2019-03-24T16:55:22.659Z,97727.11
2019-03-24T16:57:49.934Z,97727.11
2019-03-24T17:00:17.008Z,97737.31
2019-03-24T17:02:43.908Z,97726.83
2019-03-24T17:05:10.829Z,97753.55
2019-03-24T17:07:37.741Z,97745.69
2019-03-24T17:10:04.653Z,97751.21
2019-03-24T17:12:31.573Z,97744.37
2019-03-24T17:14:58.499Z,97753.55
2019-03-24T17:17:25.399Z,97791.83
2019-03-24T17:19:52.319Z,97758.79
2019-03-24T17:22:19.238Z,97764.31
2019-03-24T17:24:46.224Z,97766.14
2019-03-24T17:27:13.128Z,97771.89
2019-03-24T17:29:40.047Z,97771.38
2019-03-24T17:32:06.944Z,97775.31
2019-03-24T17:34:33.881Z,97780.55
2019-03-24T17:37:00.805Z,97777.93
2019-03-24T17:39:27.781Z,97783.69
2019-03-24T17:41:54.687Z,97777.65
2019-03-24T17:44:21.606Z,97784.99
2019-03-24T17:46:48.650Z,97785.80
2019-03-24T17:49:15.547Z,97784.99
2019-03-24T17:51:42.465Z,97788.92
2019-03-24T17:54:09.371Z,97791.03
2019-03-24T17:56:36.282Z,97801.52
2019-03-24T17:59:03.190Z,97802.03
2019-03-24T18:01:30.107Z,97799.92
2019-03-24T18:03:57.053Z,97805.16
2019-03-24T18:06:23.964Z,97805.96
2019-03-24T18:08:50.885Z,97813.83
2019-03-24T18:11:17.811Z,97817.75
2019-03-24T18:13:44.733Z,97815.13
2019-03-24T18:16:11.650Z,97809.89
2019-03-24T18:18:38.551Z,97809.89
2019-03-24T18:21:05.571Z,97812.23
2019-03-24T18:23:32.489Z,97820.89
2019-03-24T18:25:59.406Z,97837.92
2019-03-24T18:28:26.307Z,97833.48
2019-03-24T18:30:53.221Z,97834.79
2019-03-24T18:33:20.131Z,97836.09
2019-03-24T18:35:47.038Z,97841.57
2019-03-24T18:38:13.953Z,97848.69
2019-03-24T18:40:40.870Z,97851.02
2019-03-24T18:43:07.800Z,97853.64
2019-03-24T18:45:34.704Z,97858.09
2019-03-24T18:48:01.626Z,97851.82
2019-03-24T18:50:28.526Z,97854.16
2019-03-24T18:52:55.466Z,97856.78
2019-03-24T18:55:22.387Z,97864.92
2019-03-24T18:57:49.313Z,97860.42
2019-03-24T19:00:16.220Z,97868.57
2019-03-24T19:02:43.132Z,97868.05
2019-03-24T19:05:10.049Z,97873.02
2019-03-24T19:07:36.958Z,97876.44
2019-03-24T19:10:03.874Z,97872.22
2019-03-24T19:12:30.781Z,97872.73
2019-03-24T19:14:57.699Z,97886.62
2019-03-24T19:17:24.617Z,97878.77
2019-03-24T19:19:51.524Z,97880.08
2019-03-24T19:22:18.433Z,97849.68
2019-03-24T19:24:45.712Z,97888.73
2019-03-24T19:27:12.649Z,97891.08
2019-03-24T19:29:39.563Z,97896.59
2019-03-24T19:32:06.501Z,97897.11
2019-03-24T19:34:33.408Z,97902.87
2019-03-24T19:37:00.318Z,97905.48
2019-03-24T19:39:27.225Z,97900.76
2019-03-24T19:41:54.136Z,97903.66
2019-03-24T19:44:21.054Z,97900.76
2019-03-24T19:46:47.988Z,97900.25
2019-03-24T19:49:14.905Z,97897.11
2019-03-24T19:51:41.809Z,97895.52
2019-03-24T19:54:08.728Z,97896.83
2019-03-24T19:56:35.635Z,97904.69
2019-03-24T19:59:02.553Z,97900.76
2019-03-24T20:01:29.461Z,97901.79
2019-03-24T20:03:56.392Z,97895.75
2019-03-24T20:06:23.305Z,97895.52
2019-03-24T20:08:51.010Z,97895.23
2019-03-24T20:11:18.042Z,97897.86
2019-03-24T20:13:44.961Z,97898.14
2019-03-24T20:16:11.877Z,97900.76
2019-03-24T20:18:38.784Z,97895.52
2019-03-24T20:21:05.697Z,97886.06
2019-03-24T20:23:32.637Z,97890.00
2019-03-24T20:25:59.544Z,97895.75
2019-03-24T20:28:26.457Z,97891.59
2019-03-24T20:30:53.373Z,97886.58
2019-03-24T20:33:20.560Z,97883.95
2019-03-24T20:35:47.479Z,97890.00
2019-03-24T20:38:14.398Z,97883.16
2019-03-24T20:40:41.303Z,97883.16
2019-03-24T20:43:08.213Z,97886.30
2019-03-24T20:45:35.129Z,97889.42
2019-03-24T20:48:02.055Z,97886.80
2019-03-24T20:50:28.978Z,97878.15
2019-03-24T20:53:05.500Z,97875.53
2019-03-24T20:55:24.452Z,97875.53
2019-03-24T20:57:51.622Z,97867.16
2019-03-24T21:00:18.606Z,97864.53
2019-03-24T21:02:45.508Z,97860.00
2019-03-24T21:05:12.412Z,97848.53
2019-03-24T21:07:39.328Z,97846.42
2019-03-24T21:10:06.232Z,97846.63
2019-03-24T21:12:33.167Z,97844.80
2019-03-24T21:15:00.343Z,97848.81
2019-03-24T21:17:29.164Z,97853.03
2019-03-24T21:19:56.047Z,97850.69
2019-03-24T21:22:23.210Z,97845.45
2019-03-24T21:24:50.542Z,97843.11
2019-03-24T21:27:17.565Z,97836.56
2019-03-24T21:29:44.650Z,97834.73
2019-03-24T21:32:11.590Z,97837.08
2019-03-24T21:34:39.092Z,97835.53
2019-03-24T21:37:06.239Z,97844.19
2019-03-24T21:39:33.341Z,97841.80
2019-03-24T21:42:00.295Z,97836.05
2019-03-24T21:44:27.264Z,97848.63
2019-03-24T21:46:54.364Z,97850.45
2019-03-24T21:49:21.413Z,97847.84
2019-03-24T21:51:48.347Z,97843.91
2019-03-24T21:54:15.373Z,97837.87
2019-03-24T21:56:42.605Z,97833.94
2019-03-24T21:59:09.676Z,97833.94
2019-03-24T22:01:38.455Z,97834.22
2019-03-24T22:04:05.590Z,97836.05
2019-03-24T22:06:35.084Z,97831.31
2019-03-24T22:09:02.133Z,97830.01
2019-03-24T22:11:29.222Z,97834.45
2019-03-24T22:13:56.296Z,97827.39
2019-03-24T22:16:24.314Z,97831.59
2019-03-24T22:18:51.441Z,97823.73
2019-03-24T22:21:18.624Z,97827.67
2019-03-24T22:23:52.252Z,97825.56
2019-03-24T22:26:15.717Z,97823.73
2019-03-24T22:28:43.391Z,97826.08
2019-03-24T22:31:10.778Z,97827.44
2019-03-24T22:33:37.749Z,97821.63
2019-03-24T22:36:04.788Z,97821.12
2019-03-24T22:38:32.802Z,97816.39
2019-03-24T22:40:59.947Z,97822.42
2019-03-24T22:43:27.174Z,97815.08
2019-03-24T22:46:00.877Z,97821.63
2019-03-24T22:48:32.024Z,97820.33
2019-03-24T22:50:59.267Z,97819.80
2019-03-24T22:53:28.348Z,97816.39
2019-03-24T22:55:55.714Z,97821.91
2019-03-24T22:58:23.190Z,97819.52
2019-03-24T23:00:54.272Z,97823.73
2019-03-24T23:03:21.909Z,97817.98
2019-03-24T23:05:50.788Z,97808.53
2019-03-24T23:08:21.995Z,97815.88
2019-03-24T23:10:49.402Z,97813.48
2019-03-24T23:13:17.863Z,97808.02
2019-03-24T23:15:57.719Z,97803.29
2019-03-24T23:18:26.015Z,97801.98
2019-03-24T23:20:53.393Z,97797.25
2019-03-24T23:23:20.610Z,97798.56
2019-03-24T23:25:47.839Z,97792.01
2019-03-24T23:28:15.061Z,97789.67
2019-03-24T23:30:42.342Z,97783.64
2019-03-24T23:33:10.518Z,97781.02
2019-03-24T23:35:39.384Z,97775.77
2019-03-24T23:38:09.165Z,97778.91
2019-03-24T23:40:36.210Z,97779.42
2019-03-24T23:43:05.990Z,97771.84
2019-03-24T23:45:33.196Z,97773.67
2019-03-24T23:48:00.403Z,97771.84
2019-03-24T23:50:27.990Z,97774.98
2019-03-24T23:52:54.917Z,97770.53
2019-03-24T23:55:23.688Z,97778.39
2019-03-24T23:57:51.763Z,97773.16
